createdAt,value
2023-12-30T00:05:03.879Z,1003.3
2023-12-30T00:20:38.136Z,1003.1
2023-12-30T00:36:12.173Z,1003.3
2023-12-30T00:51:46.271Z,1003.4
2023-12-30T01:07:20.572Z,1003.5
2023-12-30T01:22:54.911Z,1003.5
2023-12-30T01:38:29.032Z,1003.4
2023-12-30T01:54:03.104Z,1003.6
2023-12-30T02:09:37.147Z,1003.7
2023-12-30T02:25:11.630Z,1003.7
2023-12-30T02:40:45.885Z,1003.9
2023-12-30T02:56:20.068Z,1004
2023-12-30T03:11:54.348Z,1004.2
2023-12-30T03:27:28.383Z,1004.4
2023-12-30T03:43:02.904Z,1004.3
2023-12-30T03:58:37.342Z,1004.2
2023-12-30T04:14:11.533Z,1004.6
2023-12-30T04:29:45.702Z,1004.9
2023-12-30T04:45:20.016Z,1005
2023-12-30T05:00:55.225Z,1004.9
2023-12-30T05:16:29.900Z,1004.8
2023-12-30T05:32:04.022Z,1005.8
2023-12-30T05:47:38.270Z,1005.8
2023-12-30T06:03:12.922Z,1005.9
2023-12-30T06:18:47.146Z,1005.9
2023-12-30T06:34:26.426Z,1006.3
2023-12-30T06:50:00.519Z,1006.5
2023-12-30T07:05:34.594Z,1006.6
2023-12-30T07:21:08.666Z,1007
2023-12-30T07:36:43.050Z,1007.1
2023-12-30T07:52:17.990Z,1007.1
2023-12-30T08:07:53.361Z,1007.2
2023-12-30T08:23:27.424Z,1007.3
2023-12-30T08:39:01.358Z,1007.1
2023-12-30T08:54:35.376Z,1007.2
2023-12-30T09:10:09.842Z,1007.2
2023-12-30T09:25:44.191Z,1007.3
2023-12-30T09:41:18.884Z,1007.3
2023-12-30T09:56:53.482Z,1007.3
2023-12-30T10:12:27.595Z,1007.7
2023-12-30T10:28:01.742Z,1008
2023-12-30T10:43:36.087Z,1008.1
2023-12-30T10:59:10.332Z,1008.2
2023-12-30T11:14:44.589Z,1008.1
2023-12-30T11:30:19.282Z,1007.9
2023-12-30T11:45:54.662Z,1007.6
2023-12-30T12:01:29.277Z,1007.7
2023-12-30T12:17:03.802Z,1007.5
2023-12-30T12:32:39.111Z,1007.2
2023-12-30T12:48:15.234Z,1007.4
2023-12-30T13:03:50.197Z,1007.7
2023-12-30T13:19:25.108Z,1007.8
2023-12-30T13:35:00.112Z,1007.9
2023-12-30T13:50:34.483Z,1007.9
2023-12-30T14:06:09.160Z,1008
2023-12-30T14:21:43.607Z,1007.9
2023-12-30T14:37:18.820Z,1007.9
2023-12-30T14:52:53.711Z,1008
2023-12-30T15:08:28.099Z,1007.9
2023-12-30T15:24:02.322Z,1008.2
2023-12-30T15:39:36.848Z,1008.4
2023-12-30T15:55:11.317Z,1008.3
2023-12-30T16:10:47.403Z,1008.5
2023-12-30T16:26:22.264Z,1008.6
2023-12-30T16:41:56.483Z,1008.7
2023-12-30T16:57:30.854Z,1008.7
2023-12-30T17:13:05.565Z,1008.5
2023-12-30T17:29:02.000Z,1008.4
2023-12-30T17:44:36.317Z,1008.3
2023-12-30T18:00:10.731Z,1008.4
2023-12-30T18:15:45.362Z,1008.4
2023-12-30T18:31:20.107Z,1008.3
2023-12-30T18:46:54.683Z,1008.4
2023-12-30T19:02:28.855Z,1008.3
2023-12-30T19:18:02.891Z,1008.2
2023-12-30T19:33:37.430Z,1008.1
2023-12-30T19:49:13.780Z,1008.2
2023-12-30T20:04:48.060Z,1008.3
2023-12-30T20:20:23.127Z,1008.2
2023-12-30T20:35:57.353Z,1008.3
2023-12-30T20:51:31.411Z,1008.2
2023-12-30T21:07:05.436Z,1008.2
2023-12-30T21:22:39.868Z,1008
2023-12-30T21:38:15.271Z,1007.9
2023-12-30T21:53:49.401Z,1007.8
2023-12-30T22:09:23.925Z,1007.7
2023-12-30T22:24:58.092Z,1007.6
2023-12-30T22:40:32.345Z,1007.5
2023-12-30T22:56:08.031Z,1007.6
2023-12-30T23:11:43.531Z,1007.5
2023-12-30T23:27:18.065Z,1007.4
2023-12-30T23:42:52.062Z,1007.3
2023-12-30T23:58:26.129Z,1007
